createdAt,value
2022-08-26T00:01:56.855Z,21.66
2022-08-26T00:04:59.250Z,21.62
2022-08-26T00:08:01.533Z,21.45
2022-08-26T00:11:04.353Z,21.36
2022-08-26T00:14:06.786Z,21.36
2022-08-26T00:17:09.415Z,21.48
2022-08-26T00:20:14.324Z,21.42
2022-08-26T00:23:17.779Z,21.78
2022-08-26T00:26:20.148Z,21.91
2022-08-26T00:29:23.163Z,21.98
2022-08-26T00:32:25.352Z,21.89
2022-08-26T00:35:29.604Z,21.94
2022-08-26T00:38:37.918Z,21.93
2022-08-26T00:41:41.603Z,21.85
2022-08-26T00:44:44.025Z,21.88
2022-08-26T00:47:53.955Z,21.73
2022-08-26T00:51:10.704Z,21.74
2022-08-26T00:54:13.575Z,21.67
2022-08-26T00:57:18.062Z,21.43
2022-08-26T01:00:27.949Z,21.24
2022-08-26T01:03:32.611Z,21.12
2022-08-26T01:06:35.484Z,21.18
2022-08-26T01:09:38.369Z,21.11
2022-08-26T01:12:55.761Z,20.87
2022-08-26T01:16:01.761Z,20.71
2022-08-26T01:19:20.685Z,20.55
2022-08-26T01:22:31.753Z,20.42
2022-08-26T01:25:34.226Z,20.48
2022-08-26T01:28:37.247Z,20.52
2022-08-26T01:31:43.011Z,20.74
2022-08-26T01:34:46.721Z,20.44
2022-08-26T01:37:50.051Z,20.17
2022-08-26T01:40:52.275Z,20.03
2022-08-26T01:43:57.887Z,20.05
2022-08-26T01:47:02.129Z,20.06
2022-08-26T01:50:28.012Z,20.00
2022-08-26T01:53:32.621Z,20.21
2022-08-26T01:56:36.381Z,20.44
2022-08-26T01:59:38.993Z,20.38
2022-08-26T02:02:46.944Z,20.25
2022-08-26T02:05:58.485Z,20.16
2022-08-26T02:09:02.392Z,20.17
2022-08-26T02:12:05.360Z,20.32
2022-08-26T02:15:09.944Z,20.48
2022-08-26T02:18:14.120Z,20.54
2022-08-26T02:21:17.095Z,20.50
2022-08-26T02:24:27.323Z,20.27
2022-08-26T02:27:33.042Z,20.25
2022-08-26T02:30:35.326Z,20.29
2022-08-26T02:33:38.258Z,20.40
2022-08-26T02:36:45.482Z,20.67
2022-08-26T02:39:48.015Z,20.72
2022-08-26T02:42:53.054Z,20.62
2022-08-26T02:46:00.061Z,20.71
2022-08-26T02:49:05.104Z,20.70
2022-08-26T02:52:08.702Z,20.38
2022-08-26T02:55:11.298Z,19.97
2022-08-26T02:58:13.500Z,19.83
2022-08-26T03:01:29.981Z,19.65
2022-08-26T03:04:33.389Z,19.57
2022-08-26T03:07:35.834Z,19.67
2022-08-26T03:10:39.089Z,19.78
2022-08-26T03:13:42.316Z,19.79
2022-08-26T03:16:44.549Z,19.68
2022-08-26T03:19:54.666Z,19.56
2022-08-26T03:22:59.943Z,19.49
2022-08-26T03:26:02.540Z,19.49
2022-08-26T03:29:23.785Z,19.39
2022-08-26T03:32:27.218Z,19.30
2022-08-26T03:35:31.017Z,19.19
2022-08-26T03:38:33.477Z,19.13
2022-08-26T03:41:36.719Z,19.10
2022-08-26T03:44:41.999Z,18.96
2022-08-26T03:47:45.312Z,18.97
2022-08-26T03:50:47.616Z,18.98
2022-08-26T03:53:51.116Z,18.81
2022-08-26T03:56:54.017Z,18.87
2022-08-26T03:59:56.266Z,18.86
2022-08-26T04:02:59.015Z,18.92
2022-08-26T04:06:01.408Z,19.03
2022-08-26T04:09:09.783Z,19.36
2022-08-26T04:12:12.262Z,19.37
2022-08-26T04:15:16.518Z,19.27
2022-08-26T04:18:20.191Z,19.43
2022-08-26T04:21:22.698Z,19.26
2022-08-26T04:24:26.728Z,19.18
2022-08-26T04:27:30.114Z,19.19
2022-08-26T04:30:32.896Z,19.28
2022-08-26T04:33:35.529Z,19.35
2022-08-26T04:36:44.570Z,19.36
2022-08-26T04:39:51.358Z,19.44
2022-08-26T04:42:54.443Z,19.53
2022-08-26T04:46:04.965Z,19.68
2022-08-26T04:49:10.955Z,19.99
2022-08-26T04:52:13.195Z,20.20
2022-08-26T04:55:15.576Z,20.53
2022-08-26T04:58:19.687Z,20.79
2022-08-26T05:01:22.204Z,20.82
2022-08-26T05:04:26.205Z,21.09
2022-08-26T05:07:28.646Z,21.12
2022-08-26T05:10:30.888Z,21.32
2022-08-26T05:13:34.882Z,21.49
2022-08-26T05:16:38.979Z,21.57
2022-08-26T05:19:43.104Z,21.35
2022-08-26T05:22:45.345Z,21.50
2022-08-26T05:25:49.036Z,21.80
2022-08-26T05:28:54.711Z,22.11
2022-08-26T05:31:57.265Z,22.68
2022-08-26T05:35:00.334Z,22.77
2022-08-26T05:38:11.801Z,22.69
2022-08-26T05:41:34.289Z,22.50
2022-08-26T05:44:53.695Z,22.49
2022-08-26T05:47:57.740Z,22.56
2022-08-26T05:51:06.579Z,22.50
2022-08-26T05:54:10.458Z,22.50
2022-08-26T05:57:13.894Z,22.66
2022-08-26T06:00:16.388Z,23.00
2022-08-26T06:03:19.135Z,23.35
2022-08-26T06:06:27.410Z,23.47
2022-08-26T06:09:31.900Z,23.74
2022-08-26T06:12:37.627Z,23.62
2022-08-26T06:15:42.395Z,23.64
2022-08-26T06:18:46.728Z,23.45
2022-08-26T06:21:51.336Z,23.71
2022-08-26T06:25:14.927Z,23.61
2022-08-26T06:28:17.546Z,23.57
2022-08-26T06:31:20.352Z,23.81
2022-08-26T06:34:23.110Z,23.90
2022-08-26T06:37:28.877Z,23.98
2022-08-26T06:40:31.867Z,24.19
2022-08-26T06:43:34.078Z,24.04
2022-08-26T06:46:36.358Z,24.33
2022-08-26T06:49:38.613Z,24.49
2022-08-26T06:52:42.657Z,24.56
2022-08-26T06:55:46.170Z,24.98
2022-08-26T06:58:48.899Z,25.13
2022-08-26T07:01:52.427Z,25.18
2022-08-26T07:04:56.820Z,25.18
2022-08-26T07:07:59.594Z,25.26
2022-08-26T07:11:06.816Z,25.44
2022-08-26T07:14:10.597Z,26.01
2022-08-26T07:17:14.245Z,26.16
2022-08-26T07:20:18.081Z,26.65
2022-08-26T07:23:21.564Z,26.35
2022-08-26T07:26:27.224Z,26.60
2022-08-26T07:29:30.935Z,26.67
2022-08-26T07:32:33.273Z,26.87
2022-08-26T07:35:35.740Z,26.87
2022-08-26T07:38:39.648Z,27.00
2022-08-26T07:41:41.867Z,27.06
2022-08-26T07:44:45.332Z,27.33
2022-08-26T07:47:47.838Z,27.26
2022-08-26T07:50:50.858Z,27.30
2022-08-26T07:53:55.540Z,27.51
2022-08-26T07:56:57.832Z,27.18
2022-08-26T08:00:00.447Z,27.15
2022-08-26T08:03:04.532Z,27.24
2022-08-26T08:06:07.022Z,26.93
2022-08-26T08:09:13.430Z,27.30
2022-08-26T08:12:16.483Z,27.19
2022-08-26T08:15:24.992Z,27.83
2022-08-26T08:18:28.808Z,27.72
2022-08-26T08:21:31.493Z,28.11
2022-08-26T08:24:34.552Z,28.04
2022-08-26T08:27:38.388Z,27.93
2022-08-26T08:30:41.427Z,27.77
2022-08-26T08:33:43.670Z,28.11
2022-08-26T08:36:46.830Z,27.84
2022-08-26T08:39:49.851Z,27.91
2022-08-26T08:43:37.630Z,28.20
2022-08-26T08:46:42.531Z,28.27
2022-08-26T08:49:45.610Z,28.35
2022-08-26T08:53:11.194Z,28.33
2022-08-26T08:56:41.223Z,28.45
2022-08-26T08:59:53.336Z,28.42
2022-08-26T09:03:14.467Z,27.98
2022-08-26T09:06:20.499Z,27.98
2022-08-26T09:09:47.268Z,28.65
2022-08-26T09:12:50.797Z,29.15
2022-08-26T09:15:57.755Z,29.47
2022-08-26T09:19:19.213Z,29.29
2022-08-26T09:22:33.603Z,29.58
2022-08-26T09:25:48.779Z,29.60
2022-08-26T09:28:59.330Z,29.29
2022-08-26T09:32:24.058Z,29.23
2022-08-26T09:35:35.774Z,29.82
2022-08-26T09:38:38.079Z,29.20
2022-08-26T09:41:41.813Z,29.05
2022-08-26T09:45:05.274Z,29.84
2022-08-26T09:48:09.054Z,30.12
2022-08-26T09:51:32.200Z,30.40
2022-08-26T09:54:35.688Z,29.65
2022-08-26T09:57:55.047Z,29.13
2022-08-26T10:01:01.600Z,29.34
2022-08-26T10:04:06.478Z,29.81
2022-08-26T10:07:09.702Z,30.03
2022-08-26T10:10:19.332Z,30.05
2022-08-26T10:13:27.076Z,30.40
2022-08-26T10:16:47.097Z,29.99
2022-08-26T10:19:55.604Z,29.72
2022-08-26T10:23:09.829Z,29.59
2022-08-26T10:26:17.882Z,29.91
2022-08-26T10:29:41.360Z,29.74
2022-08-26T10:32:49.986Z,29.89
2022-08-26T10:35:55.552Z,30.44
2022-08-26T10:39:00.638Z,29.89
2022-08-26T10:42:14.401Z,30.28
2022-08-26T10:45:20.217Z,30.73
2022-08-26T10:48:35.460Z,31.10
2022-08-26T10:51:43.041Z,30.53
2022-08-26T10:54:53.681Z,30.47
2022-08-26T10:57:55.796Z,30.47
2022-08-26T11:01:41.400Z,30.62
2022-08-26T11:05:05.536Z,30.99
2022-08-26T11:08:19.893Z,30.89
2022-08-26T11:11:41.549Z,30.82
2022-08-26T11:14:58.413Z,30.44
2022-08-26T11:18:10.031Z,31.03
2022-08-26T11:21:49.481Z,31.57
2022-08-26T11:24:52.913Z,31.68
2022-08-26T11:27:58.338Z,31.03
2022-08-26T11:31:00.532Z,30.49
2022-08-26T11:34:10.811Z,30.83
2022-08-26T11:37:15.800Z,30.71
2022-08-26T11:40:22.109Z,30.66
2022-08-26T11:43:29.795Z,31.03
2022-08-26T11:46:37.362Z,30.96
2022-08-26T11:49:39.729Z,30.71
2022-08-26T11:52:53.191Z,30.83
2022-08-26T11:55:56.337Z,30.87
2022-08-26T11:59:00.708Z,31.36
2022-08-26T12:02:02.957Z,31.55
2022-08-26T12:05:07.160Z,31.19
2022-08-26T12:08:14.257Z,30.83
2022-08-26T12:11:25.677Z,31.20
2022-08-26T12:14:27.970Z,31.15
2022-08-26T12:17:30.233Z,31.36
2022-08-26T12:20:46.282Z,31.09
2022-08-26T12:23:50.938Z,30.79
2022-08-26T12:27:10.217Z,30.86
2022-08-26T12:30:24.107Z,31.18
2022-08-26T12:33:29.152Z,31.47
2022-08-26T12:36:56.250Z,31.29
2022-08-26T12:40:27.035Z,31.41
2022-08-26T12:43:45.298Z,31.66
2022-08-26T12:46:49.842Z,31.49
2022-08-26T12:50:07.295Z,31.46
2022-08-26T12:53:09.429Z,31.78
2022-08-26T12:56:32.642Z,31.56
2022-08-26T12:59:34.842Z,31.58
2022-08-26T13:02:39.271Z,31.49
2022-08-26T13:05:41.454Z,31.54
2022-08-26T13:08:54.824Z,31.25
2022-08-26T13:11:58.820Z,31.49
2022-08-26T13:15:02.326Z,31.44
2022-08-26T13:18:05.122Z,31.06
2022-08-26T13:21:17.484Z,31.42
2022-08-26T13:24:33.011Z,31.56
2022-08-26T13:27:35.369Z,31.21
2022-08-26T13:30:40.056Z,31.34
2022-08-26T13:33:44.618Z,31.60
2022-08-26T13:36:48.630Z,31.81
2022-08-26T13:39:51.166Z,31.41
2022-08-26T13:42:53.406Z,31.85
2022-08-26T13:45:55.895Z,31.34
2022-08-26T13:48:58.141Z,31.29
2022-08-26T13:52:00.382Z,31.47
2022-08-26T13:55:02.731Z,31.46
2022-08-26T13:58:04.984Z,31.75
2022-08-26T14:01:07.403Z,31.87
2022-08-26T14:04:09.686Z,31.69
2022-08-26T14:07:11.956Z,31.53
2022-08-26T14:10:14.229Z,31.25
2022-08-26T14:13:16.541Z,31.39
2022-08-26T14:16:25.633Z,31.34
2022-08-26T14:19:30.882Z,31.62
2022-08-26T14:22:33.914Z,31.54
2022-08-26T14:25:36.159Z,31.44
2022-08-26T14:28:38.514Z,31.62
2022-08-26T14:31:40.743Z,31.42
2022-08-26T14:34:42.991Z,31.25
2022-08-26T14:37:45.630Z,31.32
2022-08-26T14:40:47.865Z,31.42
2022-08-26T14:44:00.025Z,31.37
2022-08-26T14:47:03.791Z,31.17
2022-08-26T14:50:06.446Z,31.06
2022-08-26T14:53:27.282Z,30.96
2022-08-26T14:56:31.024Z,30.82
2022-08-26T14:59:42.100Z,30.72
2022-08-26T15:02:45.129Z,30.97
2022-08-26T15:05:48.483Z,30.84
2022-08-26T15:08:50.699Z,30.90
2022-08-26T15:11:53.321Z,31.05
2022-08-26T15:14:55.562Z,31.00
2022-08-26T15:17:57.817Z,30.72
2022-08-26T15:21:02.394Z,30.76
2022-08-26T15:24:05.204Z,30.64
2022-08-26T15:27:08.394Z,30.55
2022-08-26T15:30:12.308Z,30.47
2022-08-26T15:33:15.362Z,30.44
2022-08-26T15:36:18.236Z,30.37
2022-08-26T15:39:20.801Z,30.33
2022-08-26T15:42:23.347Z,30.21
2022-08-26T15:45:26.345Z,30.26
2022-08-26T15:48:28.694Z,30.15
2022-08-26T15:51:35.307Z,30.05
2022-08-26T15:54:47.664Z,29.95
2022-08-26T15:57:52.082Z,29.91
2022-08-26T16:00:55.937Z,29.81
2022-08-26T16:03:59.618Z,29.76
2022-08-26T16:07:01.869Z,29.72
2022-08-26T16:10:04.268Z,29.76
2022-08-26T16:13:08.402Z,29.63
2022-08-26T16:16:12.776Z,29.60
2022-08-26T16:19:15.504Z,29.46
2022-08-26T16:22:17.675Z,29.44
2022-08-26T16:25:20.237Z,29.38
2022-08-26T16:28:26.258Z,29.40
2022-08-26T16:31:28.631Z,29.33
2022-08-26T16:34:30.840Z,29.34
2022-08-26T16:37:34.573Z,29.28
2022-08-26T16:40:39.013Z,29.16
2022-08-26T16:43:41.285Z,29.14
2022-08-26T16:46:43.530Z,29.14
2022-08-26T16:49:46.806Z,29.13
2022-08-26T16:52:55.653Z,29.16
2022-08-26T16:55:58.202Z,29.01
2022-08-26T16:59:00.392Z,28.87
2022-08-26T17:02:02.817Z,28.71
2022-08-26T17:05:06.030Z,28.62
2022-08-26T17:08:08.561Z,28.48
2022-08-26T17:11:11.768Z,28.41
2022-08-26T17:14:14.013Z,28.34
2022-08-26T17:17:16.207Z,28.22
2022-08-26T17:20:19.085Z,28.00
2022-08-26T17:23:22.198Z,27.93
2022-08-26T17:26:24.590Z,27.89
2022-08-26T17:29:26.919Z,27.90
2022-08-26T17:32:29.184Z,27.66
2022-08-26T17:35:31.770Z,27.48
2022-08-26T17:38:34.857Z,27.28
2022-08-26T17:41:38.646Z,27.09
2022-08-26T17:44:40.945Z,26.75
2022-08-26T17:47:43.498Z,26.52
2022-08-26T17:50:49.483Z,26.29
2022-08-26T17:53:52.502Z,26.18
2022-08-26T17:56:54.763Z,26.03
2022-08-26T17:59:59.314Z,25.87
2022-08-26T18:03:01.574Z,25.71
2022-08-26T18:06:08.349Z,25.57
2022-08-26T18:09:10.796Z,25.40
2022-08-26T18:12:13.052Z,25.32
2022-08-26T18:15:18.443Z,25.20
2022-08-26T18:18:20.652Z,25.08
2022-08-26T18:21:25.423Z,24.84
2022-08-26T18:24:30.408Z,24.68
2022-08-26T18:27:32.780Z,24.66
2022-08-26T18:30:35.095Z,24.66
2022-08-26T18:33:37.516Z,24.54
2022-08-26T18:36:40.427Z,24.53
2022-08-26T18:39:42.646Z,24.55
2022-08-26T18:42:44.866Z,24.51
2022-08-26T18:46:01.717Z,24.38
2022-08-26T18:49:04.709Z,24.36
2022-08-26T18:52:07.190Z,24.22
2022-08-26T18:55:10.253Z,24.25
2022-08-26T18:58:12.448Z,24.05
2022-08-26T19:01:16.248Z,23.98
2022-08-26T19:04:18.639Z,23.94
2022-08-26T19:07:20.905Z,24.05
2022-08-26T19:10:24.301Z,24.27
2022-08-26T19:13:26.700Z,24.20
2022-08-26T19:16:29.682Z,24.17
2022-08-26T19:19:31.960Z,24.17
2022-08-26T19:22:34.190Z,24.06
2022-08-26T19:25:48.300Z,23.98
2022-08-26T19:28:50.596Z,23.70
2022-08-26T19:31:52.927Z,23.63
2022-08-26T19:34:55.228Z,23.48
2022-08-26T19:37:57.501Z,23.47
2022-08-26T19:40:59.691Z,23.47
2022-08-26T19:44:02.709Z,23.40
2022-08-26T19:47:08.913Z,23.36
2022-08-26T19:50:13.021Z,23.29
2022-08-26T19:53:15.461Z,23.19
2022-08-26T19:56:17.793Z,23.19
2022-08-26T19:59:20.555Z,23.25
2022-08-26T20:02:22.778Z,23.24
2022-08-26T20:05:26.124Z,23.29
2022-08-26T20:08:28.706Z,23.35
2022-08-26T20:11:31.969Z,23.49
2022-08-26T20:14:35.252Z,23.52
2022-08-26T20:17:37.507Z,23.50
2022-08-26T20:20:58.697Z,23.40
2022-08-26T20:24:04.592Z,23.38
2022-08-26T20:27:08.034Z,23.27
2022-08-26T20:30:11.403Z,23.01
2022-08-26T20:33:13.577Z,22.74
2022-08-26T20:36:15.885Z,22.94
2022-08-26T20:39:20.903Z,23.03
2022-08-26T20:42:23.167Z,23.59
2022-08-26T20:45:26.039Z,23.84
2022-08-26T20:48:28.240Z,23.95
2022-08-26T20:51:30.473Z,23.59
2022-08-26T20:54:32.670Z,23.27
2022-08-26T20:57:35.007Z,23.01
2022-08-26T21:00:38.209Z,22.81
2022-08-26T21:03:40.890Z,22.66
2022-08-26T21:06:45.174Z,22.45
2022-08-26T21:09:54.760Z,22.27
2022-08-26T21:12:57.775Z,22.16
2022-08-26T21:15:59.970Z,21.98
2022-08-26T21:19:03.930Z,21.96
2022-08-26T21:22:06.103Z,21.90
2022-08-26T21:25:08.957Z,22.03
2022-08-26T21:28:11.740Z,22.00
2022-08-26T21:31:15.830Z,21.98
2022-08-26T21:34:19.232Z,21.84
2022-08-26T21:37:21.415Z,21.74
2022-08-26T21:40:23.632Z,21.64
2022-08-26T21:43:34.917Z,21.53
2022-08-26T21:46:38.087Z,21.50
2022-08-26T21:49:40.296Z,21.44
2022-08-26T21:52:42.543Z,21.38
2022-08-26T21:55:45.597Z,21.30
2022-08-26T21:58:48.262Z,21.28
2022-08-26T22:01:51.237Z,21.26
2022-08-26T22:04:54.010Z,21.16
2022-08-26T22:07:56.305Z,21.09
2022-08-26T22:11:00.602Z,21.07
2022-08-26T22:14:02.877Z,20.97
2022-08-26T22:17:05.924Z,20.97
2022-08-26T22:20:16.528Z,20.99
2022-08-26T22:23:20.687Z,20.91
2022-08-26T22:26:25.722Z,20.73
2022-08-26T22:29:28.176Z,20.72
2022-08-26T22:32:30.376Z,20.58
2022-08-26T22:35:32.594Z,20.54
2022-08-26T22:38:34.782Z,20.51
2022-08-26T22:41:37.045Z,20.50
2022-08-26T22:44:41.229Z,20.48
2022-08-26T22:47:43.529Z,20.55
2022-08-26T22:50:47.194Z,20.65
2022-08-26T22:53:49.654Z,20.52
2022-08-26T22:56:51.886Z,20.41
2022-08-26T22:59:54.225Z,20.31
2022-08-26T23:02:57.041Z,20.25
2022-08-26T23:05:59.440Z,20.28
2022-08-26T23:09:01.716Z,20.30
2022-08-26T23:12:04.037Z,20.11
2022-08-26T23:15:09.558Z,20.01
2022-08-26T23:18:13.405Z,19.97
2022-08-26T23:21:16.106Z,19.96
2022-08-26T23:24:18.625Z,19.99
2022-08-26T23:27:20.895Z,19.99
2022-08-26T23:30:24.765Z,19.78
2022-08-26T23:33:47.040Z,19.74
2022-08-26T23:36:49.525Z,19.76
2022-08-26T23:39:51.842Z,19.81
2022-08-26T23:42:55.684Z,19.84
2022-08-26T23:45:57.965Z,19.77
2022-08-26T23:49:01.169Z,19.77
2022-08-26T23:52:23.984Z,19.80
2022-08-26T23:55:26.824Z,19.83
2022-08-26T23:58:29.704Z,19.72
